Goodwill — DSOW6 — position and weather

sailwx.info

Track history (hours):
 
Tides and Currents Weather Stations Pressure Air Temp Water Temp Dewpoint Dewpoint Depression Visibility Wind Speed Wind Dir Waves Ship Positions

Goodwill

Last reported at 2015-Jun-29 23:13 UTC. Time now 2015-Jun-30 21:25 UTC.
Position N 48°30' W 126°29'.

Length 269 m; draft 16.5 m.

Type: Cargo ship. MMSI: 440541000.

Date/timePositionNaut miles runAvg speedWind from/ knotsBaromVisibWave heightAir tempDewpointWater temp
2015-Jun-29 23:13N 48°30' W 126°29'7 9.6
2015-Jun-29 22:29N 48°30' W 126°18'9 9.6
2015-Jun-29 21:33N 48°31' W 126°05'10 9.9
2015-Jun-29 20:33N 48°31' W 125°50'1010.0
2015-Jun-29 19:33N 48°32' W 125°35'1110.0
2015-Jun-29 18:28N 48°32' W 125°18'9 9.9
2015-Jun-29 17:32N 48°33' W 125°05'1010.2
2015-Jun-29 16:33N 48°31' W 124°50'1111.4
2015-Jun-29 15:33N 48°28' W 124°33'1212.1
2015-Jun-29 14:33N 48°23' W 124°17'1211.9
2015-Jun-29 13:33N 48°18' W 123°60'1212.0
2015-Jun-29 12:32N 48°16' W 123°42'1010.2
2015-Jun-29 11:33N 48°19' W 123°28'9 9.5
2015-Jun-29 10:33N 48°24' W 123°16'1111.0
2015-Jun-29 09:33N 48°35' W 123°14'10 9.7
2015-Jun-29 08:33N 48°44' W 123°09'8 8.5
2015-Jun-29 07:33N 48°52' W 123°03'1010.0
2015-Jun-29 06:33N 49°01' W 123°09'0 0.2
2015-Jun-29 05:33N 49°01' W 123°09'0 0.0
2015-Jun-29 04:33N 49°01' W 123°09'0 0.0
2015-Jun-29 03:33N 49°01' W 123°09'0 0.0
2015-Jun-29 02:33N 49°01' W 123°09'0 0.0
2015-Jun-29 01:33N 49°01' W 123°09'0 0.0
2015-Jun-29 00:33N 49°01' W 123°09'0 0.0
2015-Jun-28 23:33N 49°01' W 123°09'0 0.0
2015-Jun-28 22:30N 49°01' W 123°09'0 0.0
2015-Jun-28 21:33N 49°01' W 123°09'0 0.0
2015-Jun-28 20:33N 49°01' W 123°09'0 0.0
2015-Jun-28 19:33N 49°01' W 123°09'0 0.0
2015-Jun-28 18:33N 49°01' W 123°09'0 0.0
2015-Jun-28 17:33N 49°01' W 123°09'0 0.0
2015-Jun-28 16:33N 49°01' W 123°09'0 0.0
2015-Jun-28 15:33N 49°01' W 123°09'0 0.0
2015-Jun-28 14:33N 49°01' W 123°09'0 0.0
2015-Jun-28 13:33N 49°01' W 123°09'0 0.0
2015-Jun-28 12:33N 49°01' W 123°09'0 0.0
2015-Jun-28 11:33N 49°01' W 123°09'0 0.0
2015-Jun-28 10:33N 49°01' W 123°09'0 0.0
2015-Jun-28 09:33N 49°01' W 123°09'0 0.0
2015-Jun-28 08:33N 49°01' W 123°09'0 0.0
2015-Jun-28 07:33N 49°01' W 123°09'0 0.0
2015-Jun-28 06:33N 49°01' W 123°09'0 0.0
2015-Jun-28 05:33N 49°01' W 123°09'0 0.0
2015-Jun-28 04:33N 49°01' W 123°09'0 0.0
2015-Jun-28 03:33N 49°01' W 123°09'0 0.0
2015-Jun-28 02:33N 49°01' W 123°09'0 0.0
2015-Jun-28 01:33N 49°01' W 123°09'0 0.0
2015-Jun-28 00:33N 49°01' W 123°09'0 0.0
2015-Jun-27 23:33N 49°01' W 123°09'0 0.0
2015-Jun-27 22:33N 49°01' W 123°09'0 0.0
2015-Jun-27 21:33N 49°01' W 123°09'0 0.0
2015-Jun-27 20:33N 49°01' W 123°09'0 0.0
2015-Jun-27 19:33N 49°01' W 123°09'0 0.0
2015-Jun-27 18:33N 49°01' W 123°09'0 0.0
2015-Jun-27 17:33N 49°01' W 123°09'0 0.0
2015-Jun-27 16:30N 49°01' W 123°09'0 0.0
2015-Jun-27 15:33N 49°01' W 123°09'0 0.0
2015-Jun-27 14:33N 49°01' W 123°09'0 0.0
2015-Jun-27 13:33N 49°01' W 123°09'0 0.0
2015-Jun-27 12:33N 49°01' W 123°09'0 0.0
2015-Jun-27 11:33N 49°01' W 123°09'0 0.0
2015-Jun-27 10:33N 49°01' W 123°09'0 0.0
2015-Jun-27 09:30N 49°01' W 123°09'0 0.0
2015-Jun-27 08:33N 49°01' W 123°09'0 0.0
2015-Jun-27 07:33N 49°01' W 123°09'0 0.0
2015-Jun-27 06:33N 49°01' W 123°09'0 0.0
2015-Jun-27 05:33N 49°01' W 123°09'0 0.0
2015-Jun-27 04:33N 49°01' W 123°09'0 0.0
2015-Jun-27 03:33N 49°01' W 123°09'0 0.0
2015-Jun-27 02:33N 49°01' W 123°09'0 0.0
2015-Jun-27 01:33N 49°01' W 123°09'0 0.0
2015-Jun-27 00:33N 49°01' W 123°09'0 0.0
2015-Jun-26 23:33N 49°01' W 123°09'0 0.0
2015-Jun-26 22:33N 49°01' W 123°09'0 0.0
2015-Jun-26 21:27N 49°01' W 123°09'0 0.0
2015-Jun-26 20:33N 49°01' W 123°09'0 0.0
2015-Jun-26 19:33N 49°01' W 123°09'0 0.0
2015-Jun-26 18:33N 49°01' W 123°09'0 0.0
2015-Jun-26 17:33N 49°01' W 123°09'0 0.0
2015-Jun-26 16:33N 49°01' W 123°09'0 0.0
2015-Jun-26 15:33N 49°01' W 123°09'0 0.0
2015-Jun-26 14:33N 49°01' W 123°09'0 0.0
2015-Jun-26 13:33N 49°01' W 123°09'0 0.0
2015-Jun-26 12:33N 49°01' W 123°09'0 0.0
2015-Jun-26 11:33N 49°01' W 123°09'0 0.0
2015-Jun-26 10:33N 49°01' W 123°09'2 1.6
2015-Jun-26 09:34N 48°60' W 123°11'1 1.1
2015-Jun-26 08:33N 49°00' W 123°12'7 6.6
2015-Jun-26 07:34N 49°03' W 123°22'1312.9
2015-Jun-26 06:34N 49°15' W 123°21'1010.2
2015-Jun-26 05:34N 49°18' W 123°06'0 0.3
2015-Jun-26 04:31N 49°18' W 123°05'0 0.0
2015-Jun-26 03:31N 49°18' W 123°05'0 0.0
2015-Jun-26 02:31N 49°18' W 123°05'0 0.2
2015-Jun-26 01:31N 49°18' W 123°05'0 0.0
2015-Jun-26 00:31N 49°18' W 123°05'0 0.0
2015-Jun-25 23:31N 49°18' W 123°05'0 0.0
2015-Jun-25 22:31N 49°18' W 123°05'0 0.1
2015-Jun-25 21:31N 49°18' W 123°05'0 0.0
2015-Jun-25 20:31N 49°18' W 123°05'0 0.0
2015-Jun-25 19:31N 49°18' W 123°05'0 0.0
2015-Jun-25 18:31N 49°18' W 123°05'0 0.1
2015-Jun-25 17:31N 49°18' W 123°05'0 0.2
2015-Jun-25 16:31N 49°18' W 123°06'0 0.1
2015-Jun-25 15:31N 49°18' W 123°06'0 0.0
2015-Jun-25 14:31N 49°18' W 123°06'0 0.0
2015-Jun-25 13:31N 49°18' W 123°06'0 0.0
2015-Jun-25 12:31N 49°18' W 123°06'0 0.0
2015-Jun-25 11:31N 49°18' W 123°06'0 0.0
2015-Jun-25 10:31N 49°18' W 123°06'0 0.1
2015-Jun-25 09:31N 49°18' W 123°06'0 0.0
2015-Jun-25 08:31N 49°18' W 123°06'0 0.0
2015-Jun-25 07:31N 49°18' W 123°06'0 0.2
2015-Jun-25 06:31N 49°18' W 123°05'0 0.1
2015-Jun-25 05:31N 49°18' W 123°05'0 0.0
2015-Jun-25 04:31N 49°18' W 123°05'0 0.0
2015-Jun-25 03:31N 49°18' W 123°05'0 0.1
2015-Jun-25 02:31N 49°18' W 123°05'0 0.2
2015-Jun-25 01:31N 49°18' W 123°06'0 0.1
2015-Jun-25 00:31N 49°18' W 123°06'0 0.1
2015-Jun-24 23:31N 49°18' W 123°06'0 0.0
2015-Jun-24 22:31N 49°18' W 123°05'0 0.0
2015-Jun-24 21:31N 49°18' W 123°06'0 0.2
2015-Jun-24 20:31N 49°18' W 123°05'0 0.1
2015-Jun-24 19:31N 49°18' W 123°05'0 0.0
2015-Jun-24 18:31N 49°18' W 123°05'0 0.0
2015-Jun-24 17:31N 49°18' W 123°05'0 0.2
2015-Jun-24 16:31N 49°18' W 123°05'0 0.2
2015-Jun-24 15:31N 49°18' W 123°06'0 0.0
2015-Jun-24 14:31N 49°18' W 123°06'0 0.0
2015-Jun-24 13:31N 49°18' W 123°06'0 0.0
2015-Jun-24 12:31N 49°18' W 123°06'0 0.0
2015-Jun-24 11:31N 49°18' W 123°06'0 0.0
2015-Jun-24 10:31N 49°18' W 123°06'0 0.1
2015-Jun-24 09:33N 49°18' W 123°06'8 8.5
2015-Jun-24 08:33N 49°16' W 123°18'1212.4
2015-Jun-24 07:33N 49°04' W 123°20'1413.6
2015-Jun-24 06:33N 48°54' W 123°05'1010.3
2015-Jun-24 05:33N 48°44' W 123°08'1111.4
2015-Jun-24 04:34N 48°33' W 123°12'1212.1
2015-Jun-24 03:34N 48°22' W 123°20'1312.8
2015-Jun-24 02:33N 48°13' W 123°34'1312.6
2015-Jun-24 01:33N 48°14' W 123°53'1211.9
2015-Jun-24 00:33N 48°18' W 124°09'1312.7
2015-Jun-23 23:33N 48°23' W 124°27'1312.8
2015-Jun-23 22:34N 48°29' W 124°44'1313.1
2015-Jun-23 21:33N 48°28' W 125°04'1413.6
2015-Jun-23 20:33N 48°29' W 125°24'1312.8
2015-Jun-23 19:33N 48°29' W 125°44'511.5
2015-Jun-23 19:05N 48°29' W 125°52'  
Track history (hours):
 
Tides and Currents Weather Stations Pressure Air Temp Water Temp Dewpoint Dewpoint Depression Visibility Wind Speed Wind Dir Waves Ship Positions

Goodwill

Last reported at 2015-Jun-29 23:13 UTC. Time now 2015-Jun-30 21:25 UTC.
Position N 48°30' W 126°29'.

Length 269 m; draft 16.5 m.

Type: Cargo ship. MMSI: 440541000.

Date/timePositionNaut miles runAvg speedWind from/ knotsBaromVisibWave heightAir tempDewpointWater temp
2015-Jun-29 23:13N 48°30' W 126°29'7 9.6
2015-Jun-29 22:29N 48°30' W 126°18'9 9.6
2015-Jun-29 21:33N 48°31' W 126°05'10 9.9
2015-Jun-29 20:33N 48°31' W 125°50'1010.0
2015-Jun-29 19:33N 48°32' W 125°35'1110.0
2015-Jun-29 18:28N 48°32' W 125°18'9 9.9
2015-Jun-29 17:32N 48°33' W 125°05'1010.2
2015-Jun-29 16:33N 48°31' W 124°50'1111.4
2015-Jun-29 15:33N 48°28' W 124°33'1212.1
2015-Jun-29 14:33N 48°23' W 124°17'1211.9
2015-Jun-29 13:33N 48°18' W 123°60'1212.0
2015-Jun-29 12:32N 48°16' W 123°42'1010.2
2015-Jun-29 11:33N 48°19' W 123°28'9 9.5
2015-Jun-29 10:33N 48°24' W 123°16'1111.0
2015-Jun-29 09:33N 48°35' W 123°14'10 9.7
2015-Jun-29 08:33N 48°44' W 123°09'8 8.5
2015-Jun-29 07:33N 48°52' W 123°03'1010.0
2015-Jun-29 06:33N 49°01' W 123°09'0 0.2
2015-Jun-29 05:33N 49°01' W 123°09'0 0.0
2015-Jun-29 04:33N 49°01' W 123°09'0 0.0
2015-Jun-29 03:33N 49°01' W 123°09'0 0.0
2015-Jun-29 02:33N 49°01' W 123°09'0 0.0
2015-Jun-29 01:33N 49°01' W 123°09'0 0.0
2015-Jun-29 00:33N 49°01' W 123°09'0 0.0
2015-Jun-28 23:33N 49°01' W 123°09'0 0.0
2015-Jun-28 22:30N 49°01' W 123°09'0 0.0
2015-Jun-28 21:33N 49°01' W 123°09'0 0.0
2015-Jun-28 20:33N 49°01' W 123°09'0 0.0
2015-Jun-28 19:33N 49°01' W 123°09'0 0.0
2015-Jun-28 18:33N 49°01' W 123°09'0 0.0
2015-Jun-28 17:33N 49°01' W 123°09'0 0.0
2015-Jun-28 16:33N 49°01' W 123°09'0 0.0
2015-Jun-28 15:33N 49°01' W 123°09'0 0.0
2015-Jun-28 14:33N 49°01' W 123°09'0 0.0
2015-Jun-28 13:33N 49°01' W 123°09'0 0.0
2015-Jun-28 12:33N 49°01' W 123°09'0 0.0
2015-Jun-28 11:33N 49°01' W 123°09'0 0.0
2015-Jun-28 10:33N 49°01' W 123°09'0 0.0
2015-Jun-28 09:33N 49°01' W 123°09'0 0.0
2015-Jun-28 08:33N 49°01' W 123°09'0 0.0
2015-Jun-28 07:33N 49°01' W 123°09'0 0.0
2015-Jun-28 06:33N 49°01' W 123°09'0 0.0
2015-Jun-28 05:33N 49°01' W 123°09'0 0.0
2015-Jun-28 04:33N 49°01' W 123°09'0 0.0
2015-Jun-28 03:33N 49°01' W 123°09'0 0.0
2015-Jun-28 02:33N 49°01' W 123°09'0 0.0
2015-Jun-28 01:33N 49°01' W 123°09'0 0.0
2015-Jun-28 00:33N 49°01' W 123°09'0 0.0
2015-Jun-27 23:33N 49°01' W 123°09'0 0.0
2015-Jun-27 22:33N 49°01' W 123°09'0 0.0
2015-Jun-27 21:33N 49°01' W 123°09'0 0.0
2015-Jun-27 20:33N 49°01' W 123°09'0 0.0
2015-Jun-27 19:33N 49°01' W 123°09'0 0.0
2015-Jun-27 18:33N 49°01' W 123°09'0 0.0
2015-Jun-27 17:33N 49°01' W 123°09'0 0.0
2015-Jun-27 16:30N 49°01' W 123°09'0 0.0
2015-Jun-27 15:33N 49°01' W 123°09'0 0.0
2015-Jun-27 14:33N 49°01' W 123°09'0 0.0
2015-Jun-27 13:33N 49°01' W 123°09'0 0.0
2015-Jun-27 12:33N 49°01' W 123°09'0 0.0
2015-Jun-27 11:33N 49°01' W 123°09'0 0.0
2015-Jun-27 10:33N 49°01' W 123°09'0 0.0
2015-Jun-27 09:30N 49°01' W 123°09'0 0.0
2015-Jun-27 08:33N 49°01' W 123°09'0 0.0
2015-Jun-27 07:33N 49°01' W 123°09'0 0.0
2015-Jun-27 06:33N 49°01' W 123°09'0 0.0
2015-Jun-27 05:33N 49°01' W 123°09'0 0.0
2015-Jun-27 04:33N 49°01' W 123°09'0 0.0
2015-Jun-27 03:33N 49°01' W 123°09'0 0.0
2015-Jun-27 02:33N 49°01' W 123°09'0 0.0
2015-Jun-27 01:33N 49°01' W 123°09'0 0.0
2015-Jun-27 00:33N 49°01' W 123°09'0 0.0
2015-Jun-26 23:33N 49°01' W 123°09'0 0.0
2015-Jun-26 22:33N 49°01' W 123°09'0 0.0
2015-Jun-26 21:27N 49°01' W 123°09'0 0.0
2015-Jun-26 20:33N 49°01' W 123°09'0 0.0
2015-Jun-26 19:33N 49°01' W 123°09'0 0.0
2015-Jun-26 18:33N 49°01' W 123°09'0 0.0
2015-Jun-26 17:33N 49°01' W 123°09'0 0.0
2015-Jun-26 16:33N 49°01' W 123°09'0 0.0
2015-Jun-26 15:33N 49°01' W 123°09'0 0.0
2015-Jun-26 14:33N 49°01' W 123°09'0 0.0
2015-Jun-26 13:33N 49°01' W 123°09'0 0.0
2015-Jun-26 12:33N 49°01' W 123°09'0 0.0
2015-Jun-26 11:33N 49°01' W 123°09'0 0.0
2015-Jun-26 10:33N 49°01' W 123°09'2 1.6
2015-Jun-26 09:34N 48°60' W 123°11'1 1.1
2015-Jun-26 08:33N 49°00' W 123°12'7 6.6
2015-Jun-26 07:34N 49°03' W 123°22'1312.9
2015-Jun-26 06:34N 49°15' W 123°21'1010.2
2015-Jun-26 05:34N 49°18' W 123°06'0 0.3
2015-Jun-26 04:31N 49°18' W 123°05'0 0.0
2015-Jun-26 03:31N 49°18' W 123°05'0 0.0
2015-Jun-26 02:31N 49°18' W 123°05'0 0.2
2015-Jun-26 01:31N 49°18' W 123°05'0 0.0
2015-Jun-26 00:31N 49°18' W 123°05'0 0.0
2015-Jun-25 23:31N 49°18' W 123°05'0 0.0
2015-Jun-25 22:31N 49°18' W 123°05'0 0.1
2015-Jun-25 21:31N 49°18' W 123°05'0 0.0
2015-Jun-25 20:31N 49°18' W 123°05'0 0.0
2015-Jun-25 19:31N 49°18' W 123°05'0 0.0
2015-Jun-25 18:31N 49°18' W 123°05'0 0.1
2015-Jun-25 17:31N 49°18' W 123°05'0 0.2
2015-Jun-25 16:31N 49°18' W 123°06'0 0.1
2015-Jun-25 15:31N 49°18' W 123°06'0 0.0
2015-Jun-25 14:31N 49°18' W 123°06'0 0.0
2015-Jun-25 13:31N 49°18' W 123°06'0 0.0
2015-Jun-25 12:31N 49°18' W 123°06'0 0.0
2015-Jun-25 11:31N 49°18' W 123°06'0 0.0
2015-Jun-25 10:31N 49°18' W 123°06'0 0.1
2015-Jun-25 09:31N 49°18' W 123°06'0 0.0
2015-Jun-25 08:31N 49°18' W 123°06'0 0.0
2015-Jun-25 07:31N 49°18' W 123°06'0 0.2
2015-Jun-25 06:31N 49°18' W 123°05'0 0.1
2015-Jun-25 05:31N 49°18' W 123°05'0 0.0
2015-Jun-25 04:31N 49°18' W 123°05'0 0.0
2015-Jun-25 03:31N 49°18' W 123°05'0 0.1
2015-Jun-25 02:31N 49°18' W 123°05'0 0.2
2015-Jun-25 01:31N 49°18' W 123°06'0 0.1
2015-Jun-25 00:31N 49°18' W 123°06'0 0.1
2015-Jun-24 23:31N 49°18' W 123°06'0 0.0
2015-Jun-24 22:31N 49°18' W 123°05'0 0.0
2015-Jun-24 21:31N 49°18' W 123°06'0 0.2
2015-Jun-24 20:31N 49°18' W 123°05'0 0.1
2015-Jun-24 19:31N 49°18' W 123°05'0 0.0
2015-Jun-24 18:31N 49°18' W 123°05'0 0.0
2015-Jun-24 17:31N 49°18' W 123°05'0 0.2
2015-Jun-24 16:31N 49°18' W 123°05'0 0.2
2015-Jun-24 15:31N 49°18' W 123°06'0 0.0
2015-Jun-24 14:31N 49°18' W 123°06'0 0.0
2015-Jun-24 13:31N 49°18' W 123°06'0 0.0
2015-Jun-24 12:31N 49°18' W 123°06'0 0.0
2015-Jun-24 11:31N 49°18' W 123°06'0 0.0
2015-Jun-24 10:31N 49°18' W 123°06'0 0.1
2015-Jun-24 09:33N 49°18' W 123°06'8 8.5
2015-Jun-24 08:33N 49°16' W 123°18'1212.4
2015-Jun-24 07:33N 49°04' W 123°20'1413.6
2015-Jun-24 06:33N 48°54' W 123°05'1010.3
2015-Jun-24 05:33N 48°44' W 123°08'1111.4
2015-Jun-24 04:34N 48°33' W 123°12'1212.1
2015-Jun-24 03:34N 48°22' W 123°20'1312.8
2015-Jun-24 02:33N 48°13' W 123°34'1312.6
2015-Jun-24 01:33N 48°14' W 123°53'1211.9
2015-Jun-24 00:33N 48°18' W 124°09'1312.7
2015-Jun-23 23:33N 48°23' W 124°27'1312.8
2015-Jun-23 22:34N 48°29' W 124°44'1313.1
2015-Jun-23 21:33N 48°28' W 125°04'1413.6
2015-Jun-23 20:33N 48°29' W 125°24'1312.8
2015-Jun-23 19:33N 48°29' W 125°44'511.5
2015-Jun-23 19:05N 48°29' W 125°52'  

Dump ship's entire track history